ETH955 HAAB-FKYS
Flight info
| Callsign | ETH955 |
|---|---|
| Flight time | 3h 58m |
| Altitude | 36000 |
| Route | BRO4A BRO DCT KAFIA/N0459F380 UA410 IPANI UQ583 BT UR984 ARKEV ARKEV1N |
| Aircraft | B38M/M-SDE1FGHILORVWXY/HB1 |
Departure
| Time | 2026-04-21 16:18 |
|---|---|
| Airport | Addis Ababa Bole International Airport (HAAB) |
Arrival
| Time | 2026-04-21 20:16 |
|---|---|
| Airport | Yaoundé Nsimalen International Airport (FKYS) |
| Time | Latitude | Longitude | Altitude | Speed | Heading |
|---|---|---|---|---|---|
| 2026-04-21 15:56 | 8.98241 | 38.79656 | 7623 ft | 0 kts | 343° |
| 2026-04-21 15:59 | 8.98239 | 38.79656 | 7623 ft | 2 kts | 343° |
| 2026-04-21 15:59 | 8.98215 | 38.79665 | 7623 ft | 4 kts | 336° |
| 2026-04-21 15:59 | 8.98192 | 38.79678 | 7623 ft | 4 kts | 313° |
| 2026-04-21 16:00 | 8.98184 | 38.79697 | 7623 ft | 4 kts | 245° |
| 2026-04-21 16:00 | 8.98186 | 38.79700 | 7623 ft | 2 kts | 236° |
| 2026-04-21 16:04 | 8.98185 | 38.79699 | 7884 ft | 1 kts | 236° |
| 2026-04-21 16:04 | 8.98173 | 38.79683 | 7618 ft | 4 kts | 227° |
| 2026-04-21 16:04 | 8.98144 | 38.79656 | 7618 ft | 8 kts | 222° |
| 2026-04-21 16:05 | 8.98103 | 38.79603 | 7618 ft | 11 kts | 247° |
| 2026-04-21 16:05 | 8.98078 | 38.79518 | 7618 ft | 14 kts | 254° |
| 2026-04-21 16:05 | 8.98048 | 38.79408 | 7623 ft | 18 kts | 254° |
| 2026-04-21 16:05 | 8.98010 | 38.79278 | 7623 ft | 20 kts | 253° |
| 2026-04-21 16:06 | 8.97969 | 38.79141 | 7623 ft | 20 kts | 253° |
| 2026-04-21 16:06 | 8.97929 | 38.79006 | 7623 ft | 19 kts | 253° |
| 2026-04-21 16:06 | 8.97891 | 38.78881 | 7623 ft | 19 kts | 253° |
| 2026-04-21 16:06 | 8.97849 | 38.78760 | 7623 ft | 18 kts | 229° |
| 2026-04-21 16:07 | 8.97741 | 38.78771 | 7623 ft | 16 kts | 163° |
| 2026-04-21 16:07 | 8.97640 | 38.78802 | 7623 ft | 14 kts | 162° |
| 2026-04-21 16:07 | 8.97561 | 38.78776 | 7624 ft | 12 kts | 238° |
| 2026-04-21 16:07 | 8.97531 | 38.78697 | 7624 ft | 12 kts | 253° |
| 2026-04-21 16:08 | 8.97469 | 38.78493 | 7623 ft | 17 kts | 253° |
| 2026-04-21 16:08 | 8.97456 | 38.78378 | 7624 ft | 17 kts | 291° |
| 2026-04-21 16:08 | 8.97449 | 38.78279 | 7624 ft | 14 kts | 216° |
| 2026-04-21 16:09 | 8.97419 | 38.78315 | 7624 ft | 9 kts | 73° |
| 2026-04-21 16:09 | 8.97436 | 38.78378 | 7624 ft | 6 kts | 75° |
| 2026-04-21 16:17 | 8.97472 | 38.78511 | 7623 ft | 50 kts | 75° |
| 2026-04-21 16:17 | 8.97633 | 38.79051 | 7623 ft | 109 kts | 72° |
| 2026-04-21 16:17 | 8.97907 | 38.79957 | 7624 ft | 159 kts | 73° |
| 2026-04-21 16:17 | 8.98234 | 38.81143 | 7872 ft | 182 kts | 75° |
| 2026-04-21 16:18 | 8.98592 | 38.82399 | 8603 ft | 190 kts | 75° |
| 2026-04-21 16:18 | 8.98931 | 38.83676 | 9357 ft | 187 kts | 77° |
| 2026-04-21 16:18 | 8.99288 | 38.84996 | 9798 ft | 204 kts | 76° |
| 2026-04-21 16:18 | 8.99691 | 38.86459 | 10124 ft | 227 kts | 77° |
| 2026-04-21 16:19 | 9.00135 | 38.88055 | 10573 ft | 241 kts | 77° |
| 2026-04-21 16:19 | 9.00112 | 38.89721 | 11225 ft | 240 kts | 110° |
| 2026-04-21 16:19 | 8.99096 | 38.91079 | 11824 ft | 251 kts | 145° |
| 2026-04-21 16:19 | 8.97466 | 38.91720 | 12489 ft | 259 kts | 171° |
| 2026-04-21 16:20 | 8.95660 | 38.91492 | 13051 ft | 267 kts | 206° |
| 2026-04-21 16:20 | 8.94263 | 38.90259 | 13656 ft | 272 kts | 238° |
| 2026-04-21 16:20 | 8.93323 | 38.88581 | 14264 ft | 278 kts | 236° |
| 2026-04-21 16:20 | 8.92090 | 38.87055 | 14802 ft | 283 kts | 229° |
| 2026-04-21 16:21 | 8.90858 | 38.85490 | 15437 ft | 285 kts | 232° |
| 2026-04-21 16:21 | 8.89654 | 38.83862 | 15900 ft | 295 kts | 238° |
| 2026-04-21 16:21 | 8.88689 | 38.81961 | 16151 ft | 313 kts | 244° |
| 2026-04-21 16:21 | 8.87684 | 38.79934 | 16361 ft | 332 kts | 242° |
| 2026-04-21 16:22 | 8.86591 | 38.77803 | 16515 ft | 351 kts | 242° |
| 2026-04-21 16:22 | 8.85439 | 38.75594 | 16708 ft | 367 kts | 242° |
| 2026-04-21 16:22 | 8.84203 | 38.73248 | 17022 ft | 378 kts | 242° |
| 2026-04-21 16:22 | 8.82976 | 38.70925 | 17608 ft | 380 kts | 241° |
| 2026-04-21 16:23 | 8.81722 | 38.68561 | 18134 ft | 384 kts | 241° |
| 2026-04-21 16:23 | 8.80574 | 38.66108 | 18604 ft | 389 kts | 252° |
| 2026-04-21 16:23 | 8.79821 | 38.63480 | 19082 ft | 390 kts | 253° |
| 2026-04-21 16:23 | 8.79041 | 38.60841 | 19521 ft | 393 kts | 253° |
| 2026-04-21 16:24 | 8.78260 | 38.58174 | 19919 ft | 397 kts | 253° |
| 2026-04-21 16:24 | 8.77469 | 38.55500 | 20395 ft | 398 kts | 253° |
| 2026-04-21 16:24 | 8.76675 | 38.52808 | 20804 ft | 401 kts | 253° |
| 2026-04-21 16:24 | 8.75881 | 38.50099 | 21247 ft | 403 kts | 253° |
| 2026-04-21 16:25 | 8.75081 | 38.47371 | 21673 ft | 406 kts | 253° |
| 2026-04-21 16:25 | 8.74272 | 38.44617 | 22088 ft | 409 kts | 253° |
| 2026-04-21 16:25 | 8.73459 | 38.41855 | 22535 ft | 411 kts | 254° |
| 2026-04-21 16:25 | 8.72638 | 38.39075 | 22938 ft | 414 kts | 253° |
| 2026-04-21 16:26 | 8.71878 | 38.36261 | 23326 ft | 416 kts | 261° |
| 2026-04-21 16:26 | 8.71472 | 38.33362 | 23718 ft | 418 kts | 261° |
| 2026-04-21 16:26 | 8.70995 | 38.30456 | 24024 ft | 420 kts | 261° |
| 2026-04-21 16:26 | 8.70535 | 38.27539 | 24406 ft | 421 kts | 262° |
| 2026-04-21 16:27 | 8.70085 | 38.24607 | 24701 ft | 424 kts | 262° |
| 2026-04-21 16:27 | 8.69632 | 38.21663 | 25081 ft | 424 kts | 262° |
| 2026-04-21 16:27 | 8.69180 | 38.18709 | 25431 ft | 426 kts | 261° |
| 2026-04-21 16:27 | 8.68727 | 38.15747 | 25775 ft | 427 kts | 262° |
| 2026-04-21 16:28 | 8.68275 | 38.12772 | 26100 ft | 430 kts | 262° |
| 2026-04-21 16:28 | 8.67824 | 38.09782 | 26440 ft | 431 kts | 261° |
| 2026-04-21 16:28 | 8.67372 | 38.06783 | 26776 ft | 433 kts | 261° |
| 2026-04-21 16:28 | 8.66917 | 38.03769 | 27097 ft | 435 kts | 261° |
| 2026-04-21 16:29 | 8.66603 | 38.01773 | 27337 ft | 435 kts | 261° |
| 2026-04-21 16:29 | 8.66008 | 37.97712 | 27727 ft | 438 kts | 261° |
| 2026-04-21 16:29 | 8.65543 | 37.94664 | 28056 ft | 440 kts | 261° |
| 2026-04-21 16:29 | 8.65079 | 37.91604 | 28381 ft | 441 kts | 261° |
| 2026-04-21 16:30 | 8.64615 | 37.88535 | 28680 ft | 443 kts | 261° |
| 2026-04-21 16:30 | 8.64147 | 37.85446 | 28984 ft | 445 kts | 261° |
| 2026-04-21 16:30 | 8.63679 | 37.82354 | 29282 ft | 447 kts | 261° |
| 2026-04-21 16:30 | 8.63206 | 37.79240 | 29581 ft | 448 kts | 261° |
| 2026-04-21 16:31 | 8.62735 | 37.76127 | 29896 ft | 449 kts | 261° |
| 2026-04-21 16:31 | 8.62265 | 37.73038 | 30104 ft | 452 kts | 261° |
| 2026-04-21 16:31 | 8.61788 | 37.69893 | 30335 ft | 454 kts | 261° |
| 2026-04-21 16:31 | 8.61311 | 37.66736 | 30588 ft | 455 kts | 261° |
| 2026-04-21 16:32 | 8.60822 | 37.63577 | 30798 ft | 456 kts | 261° |
| 2026-04-21 16:32 | 8.60343 | 37.60396 | 31043 ft | 458 kts | 261° |
| 2026-04-21 16:32 | 8.59860 | 37.57211 | 31259 ft | 460 kts | 261° |
| 2026-04-21 16:32 | 8.59374 | 37.54016 | 31499 ft | 461 kts | 261° |
| 2026-04-21 16:33 | 8.58885 | 37.50807 | 31727 ft | 462 kts | 261° |
| 2026-04-21 16:33 | 8.58395 | 37.47592 | 31937 ft | 464 kts | 261° |
| 2026-04-21 16:33 | 8.57903 | 37.44369 | 32158 ft | 465 kts | 261° |
| 2026-04-21 16:33 | 8.57409 | 37.41131 | 32374 ft | 467 kts | 261° |
| 2026-04-21 16:34 | 8.56913 | 37.37883 | 32589 ft | 468 kts | 261° |
| 2026-04-21 16:34 | 8.56415 | 37.34628 | 32800 ft | 470 kts | 261° |
| 2026-04-21 16:34 | 8.55918 | 37.31369 | 33041 ft | 470 kts | 261° |
| 2026-04-21 16:34 | 8.55418 | 37.28105 | 33305 ft | 470 kts | 261° |
| 2026-04-21 16:35 | 8.54920 | 37.24849 | 33617 ft | 469 kts | 261° |
| 2026-04-21 16:35 | 8.54421 | 37.21593 | 33917 ft | 468 kts | 261° |
| 2026-04-21 16:35 | 8.53925 | 37.18352 | 34183 ft | 467 kts | 261° |
| 2026-04-21 16:35 | 8.53429 | 37.15114 | 34459 ft | 465 kts | 261° |
| 2026-04-21 16:36 | 8.52934 | 37.11891 | 34712 ft | 464 kts | 261° |
| 2026-04-21 16:36 | 8.52440 | 37.08672 | 34961 ft | 463 kts | 261° |
| 2026-04-21 16:36 | 8.51947 | 37.05463 | 35181 ft | 463 kts | 261° |
| 2026-04-21 16:36 | 8.51454 | 37.02251 | 35424 ft | 462 kts | 261° |
| 2026-04-21 16:37 | 8.50961 | 36.99045 | 35660 ft | 461 kts | 261° |
| 2026-04-21 16:37 | 8.50469 | 36.95844 | 35862 ft | 461 kts | 261° |
| 2026-04-21 16:37 | 8.49975 | 36.92642 | 35896 ft | 461 kts | 261° |
| 2026-04-21 16:38 | 8.49003 | 36.86270 | 35895 ft | 458 kts | 261° |
| 2026-04-21 16:38 | 8.48012 | 36.79902 | 35895 ft | 459 kts | 261° |
| 2026-04-21 16:39 | 8.47194 | 36.74604 | 35892 ft | 459 kts | 261° |
| 2026-04-21 16:39 | 8.46050 | 36.67199 | 35895 ft | 459 kts | 261° |
| 2026-04-21 16:40 | 8.45064 | 36.60826 | 35898 ft | 459 kts | 261° |
| 2026-04-21 16:40 | 8.44236 | 36.55485 | 35899 ft | 459 kts | 261° |
| 2026-04-21 16:41 | 8.43248 | 36.49111 | 35901 ft | 459 kts | 261° |
| 2026-04-21 16:41 | 8.42266 | 36.42785 | 35906 ft | 460 kts | 261° |
| 2026-04-21 16:42 | 8.41276 | 36.36407 | 35913 ft | 460 kts | 261° |
| 2026-04-21 16:42 | 8.40285 | 36.30035 | 35914 ft | 460 kts | 261° |
| 2026-04-21 16:43 | 8.39291 | 36.23657 | 35919 ft | 460 kts | 261° |
| 2026-04-21 16:43 | 8.38297 | 36.17277 | 35925 ft | 460 kts | 261° |
| 2026-04-21 16:44 | 8.37301 | 36.10897 | 35924 ft | 460 kts | 261° |
| 2026-04-21 16:44 | 8.36304 | 36.04511 | 35931 ft | 461 kts | 261° |
| 2026-04-21 16:45 | 8.35305 | 35.98122 | 35927 ft | 461 kts | 261° |
| 2026-04-21 16:45 | 8.34304 | 35.91731 | 35931 ft | 461 kts | 261° |
| 2026-04-21 16:46 | 8.33302 | 35.85335 | 35926 ft | 461 kts | 261° |
| 2026-04-21 16:46 | 8.32299 | 35.78943 | 35928 ft | 461 kts | 261° |
| 2026-04-21 16:47 | 8.31295 | 35.72552 | 35925 ft | 461 kts | 261° |
| 2026-04-21 16:47 | 8.30297 | 35.66202 | 35923 ft | 461 kts | 261° |
| 2026-04-21 16:48 | 8.29284 | 35.59770 | 35917 ft | 461 kts | 261° |
| 2026-04-21 16:48 | 8.28283 | 35.53413 | 35919 ft | 461 kts | 261° |
| 2026-04-21 16:49 | 8.27274 | 35.47013 | 35911 ft | 461 kts | 261° |
| 2026-04-21 16:49 | 8.26264 | 35.40621 | 35907 ft | 461 kts | 261° |
| 2026-04-21 16:50 | 8.25254 | 35.34230 | 35897 ft | 461 kts | 261° |
| 2026-04-21 16:50 | 8.24243 | 35.27837 | 35899 ft | 461 kts | 261° |
| 2026-04-21 16:51 | 8.23231 | 35.21453 | 35886 ft | 461 kts | 261° |
| 2026-04-21 16:51 | 8.22219 | 35.15062 | 35877 ft | 461 kts | 260° |
| 2026-04-21 16:52 | 8.21205 | 35.08678 | 35873 ft | 461 kts | 261° |
| 2026-04-21 16:52 | 8.20189 | 35.02285 | 35870 ft | 461 kts | 260° |
| 2026-04-21 16:53 | 8.19174 | 34.95899 | 35858 ft | 461 kts | 261° |
| 2026-04-21 16:53 | 8.18156 | 34.89504 | 35842 ft | 462 kts | 260° |
| 2026-04-21 16:54 | 8.17135 | 34.83100 | 35829 ft | 462 kts | 260° |
| 2026-04-21 16:54 | 8.16114 | 34.76693 | 35813 ft | 463 kts | 260° |
| 2026-04-21 16:55 | 8.15089 | 34.70278 | 35802 ft | 463 kts | 260° |
| 2026-04-21 16:55 | 8.14063 | 34.63857 | 35795 ft | 464 kts | 261° |
| 2026-04-21 16:56 | 8.13048 | 34.57460 | 35779 ft | 465 kts | 263° |
| 2026-04-21 16:56 | 8.12998 | 34.54211 | 35781 ft | 463 kts | 275° |
| 2026-04-21 16:56 | 8.13225 | 34.50967 | 35767 ft | 465 kts | 273° |
| 2026-04-21 16:57 | 8.13633 | 34.44446 | 35767 ft | 466 kts | 274° |
| 2026-04-21 16:57 | 8.14075 | 34.37927 | 35764 ft | 466 kts | 274° |
| 2026-04-21 16:58 | 8.14519 | 34.31406 | 35755 ft | 466 kts | 274° |
| 2026-04-21 16:58 | 8.14963 | 34.24882 | 35753 ft | 466 kts | 274° |
| 2026-04-21 16:59 | 8.15407 | 34.18350 | 35754 ft | 466 kts | 274° |
| 2026-04-21 16:59 | 8.15849 | 34.11821 | 35755 ft | 466 kts | 274° |
| 2026-04-21 17:00 | 8.16290 | 34.05299 | 35746 ft | 466 kts | 274° |
| 2026-04-21 17:00 | 8.16656 | 33.99867 | 35748 ft | 466 kts | 274° |
| 2026-04-21 17:01 | 8.17169 | 33.92239 | 35743 ft | 466 kts | 274° |
| 2026-04-21 17:01 | 8.17607 | 33.85711 | 35745 ft | 466 kts | 274° |
| 2026-04-21 17:02 | 8.18043 | 33.79187 | 35745 ft | 466 kts | 274° |
| 2026-04-21 17:02 | 8.18479 | 33.72654 | 35744 ft | 466 kts | 274° |
| 2026-04-21 17:03 | 8.18914 | 33.66133 | 35746 ft | 463 kts | 274° |
| 2026-04-21 17:03 | 8.19342 | 33.59690 | 35746 ft | 459 kts | 274° |
| 2026-04-21 17:04 | 8.19768 | 33.53257 | 35746 ft | 459 kts | 274° |
| 2026-04-21 17:04 | 8.20193 | 33.46823 | 35742 ft | 460 kts | 274° |
| 2026-04-21 17:05 | 8.20618 | 33.40391 | 35747 ft | 460 kts | 274° |
| 2026-04-21 17:05 | 8.21041 | 33.33949 | 35742 ft | 460 kts | 274° |
| 2026-04-21 17:06 | 8.21464 | 33.27504 | 35744 ft | 460 kts | 274° |
| 2026-04-21 17:06 | 8.21884 | 33.21101 | 35744 ft | 460 kts | 274° |
| 2026-04-21 17:07 | 8.22236 | 33.15698 | 35745 ft | 461 kts | 274° |
| 2026-04-21 17:07 | 8.22726 | 33.08193 | 35747 ft | 461 kts | 274° |
| 2026-04-21 17:08 | 8.23145 | 33.01744 | 35746 ft | 461 kts | 274° |
| 2026-04-21 17:08 | 8.23563 | 32.95288 | 35744 ft | 461 kts | 274° |
| 2026-04-21 17:09 | 8.24189 | 32.85610 | 35743 ft | 461 kts | 274° |
| 2026-04-21 17:09 | 8.24605 | 32.79153 | 35745 ft | 461 kts | 274° |
| 2026-04-21 17:10 | 8.25020 | 32.72700 | 35744 ft | 461 kts | 273° |
| 2026-04-21 17:10 | 8.25433 | 32.66246 | 35745 ft | 461 kts | 273° |
| 2026-04-21 17:11 | 8.25846 | 32.59789 | 35746 ft | 461 kts | 273° |
| 2026-04-21 17:11 | 8.26258 | 32.53328 | 35746 ft | 461 kts | 273° |
| 2026-04-21 17:12 | 8.26669 | 32.46871 | 35742 ft | 461 kts | 273° |
| 2026-04-21 17:12 | 8.27078 | 32.40419 | 35744 ft | 461 kts | 273° |
| 2026-04-21 17:13 | 8.27487 | 32.33959 | 35745 ft | 461 kts | 273° |
| 2026-04-21 17:13 | 8.27896 | 32.27496 | 35746 ft | 461 kts | 273° |
| 2026-04-21 17:14 | 8.28302 | 32.21041 | 35746 ft | 461 kts | 273° |
| 2026-04-21 17:14 | 8.28707 | 32.14588 | 35745 ft | 461 kts | 273° |
| 2026-04-21 17:15 | 8.29112 | 32.08126 | 35747 ft | 461 kts | 273° |
| 2026-04-21 17:15 | 8.29516 | 32.01666 | 35746 ft | 461 kts | 273° |
| 2026-04-21 17:16 | 8.29918 | 31.95214 | 35745 ft | 461 kts | 273° |
| 2026-04-21 17:16 | 8.30320 | 31.88752 | 35742 ft | 460 kts | 273° |
| 2026-04-21 17:17 | 8.30719 | 31.82305 | 35747 ft | 461 kts | 273° |
| 2026-04-21 17:17 | 8.31116 | 31.75892 | 35748 ft | 461 kts | 273° |
| 2026-04-21 17:18 | 8.31514 | 31.69437 | 35746 ft | 461 kts | 273° |
| 2026-04-21 17:18 | 8.31911 | 31.62982 | 35745 ft | 461 kts | 273° |
| 2026-04-21 17:19 | 8.32307 | 31.56529 | 35745 ft | 460 kts | 273° |
| 2026-04-21 17:19 | 8.32702 | 31.50080 | 35738 ft | 460 kts | 273° |
| 2026-04-21 17:20 | 8.33096 | 31.43629 | 35743 ft | 460 kts | 273° |
| 2026-04-21 17:20 | 8.33488 | 31.37178 | 35743 ft | 460 kts | 273° |
| 2026-04-21 17:21 | 8.33879 | 31.30732 | 35736 ft | 460 kts | 273° |
| 2026-04-21 17:21 | 8.34269 | 31.24294 | 35735 ft | 459 kts | 273° |
| 2026-04-21 17:22 | 8.34658 | 31.17852 | 35741 ft | 460 kts | 273° |
| 2026-04-21 17:22 | 8.35046 | 31.11411 | 35739 ft | 459 kts | 273° |
| 2026-04-21 17:23 | 8.35433 | 31.04974 | 35736 ft | 459 kts | 273° |
| 2026-04-21 17:23 | 8.35818 | 30.98542 | 35739 ft | 459 kts | 273° |
| 2026-04-21 17:24 | 8.36202 | 30.92107 | 35750 ft | 459 kts | 273° |
| 2026-04-21 17:24 | 8.36585 | 30.85679 | 35745 ft | 459 kts | 273° |
| 2026-04-21 17:25 | 8.36967 | 30.79247 | 35751 ft | 459 kts | 273° |
| 2026-04-21 17:25 | 8.37348 | 30.72817 | 35748 ft | 459 kts | 273° |
| 2026-04-21 17:26 | 8.37728 | 30.66390 | 35748 ft | 458 kts | 273° |
| 2026-04-21 17:26 | 8.38104 | 30.60003 | 35745 ft | 458 kts | 273° |
| 2026-04-21 17:27 | 8.38481 | 30.53583 | 35745 ft | 458 kts | 273° |
| 2026-04-21 17:27 | 8.38858 | 30.47159 | 35749 ft | 458 kts | 273° |
| 2026-04-21 17:28 | 8.39232 | 30.40743 | 35753 ft | 458 kts | 273° |
| 2026-04-21 17:28 | 8.39606 | 30.34327 | 35752 ft | 457 kts | 273° |
| 2026-04-21 17:29 | 8.39979 | 30.27913 | 35750 ft | 457 kts | 273° |
| 2026-04-21 17:29 | 8.40350 | 30.21499 | 35749 ft | 457 kts | 273° |
| 2026-04-21 17:30 | 8.40660 | 30.16134 | 35749 ft | 457 kts | 273° |
| 2026-04-21 17:30 | 8.41028 | 30.09763 | 35750 ft | 457 kts | 273° |
| 2026-04-21 17:31 | 8.41396 | 30.03354 | 35742 ft | 457 kts | 273° |
| 2026-04-21 17:31 | 8.41763 | 29.96953 | 35745 ft | 457 kts | 273° |
| 2026-04-21 17:32 | 8.42129 | 29.90552 | 35744 ft | 457 kts | 273° |
| 2026-04-21 17:32 | 8.42493 | 29.84150 | 35742 ft | 457 kts | 273° |
| 2026-04-21 17:33 | 8.42857 | 29.77748 | 35747 ft | 456 kts | 273° |
| 2026-04-21 17:33 | 8.43220 | 29.71354 | 35746 ft | 456 kts | 273° |
| 2026-04-21 17:34 | 8.43581 | 29.64960 | 35742 ft | 456 kts | 273° |
| 2026-04-21 17:34 | 8.43941 | 29.58563 | 35738 ft | 456 kts | 273° |
| 2026-04-21 17:35 | 8.44301 | 29.52169 | 35744 ft | 456 kts | 273° |
| 2026-04-21 17:35 | 8.44659 | 29.45775 | 35741 ft | 456 kts | 273° |
| 2026-04-21 17:36 | 8.45016 | 29.39383 | 35741 ft | 456 kts | 273° |
| 2026-04-21 17:36 | 8.45372 | 29.32990 | 35735 ft | 456 kts | 273° |
| 2026-04-21 17:37 | 8.45727 | 29.26594 | 35736 ft | 456 kts | 273° |
| 2026-04-21 17:37 | 8.46080 | 29.20204 | 35744 ft | 456 kts | 273° |
| 2026-04-21 17:38 | 8.46433 | 29.13810 | 35740 ft | 456 kts | 273° |
| 2026-04-21 17:38 | 8.46783 | 29.07461 | 35740 ft | 456 kts | 273° |
| 2026-04-21 17:39 | 8.47134 | 29.01066 | 35744 ft | 456 kts | 273° |
| 2026-04-21 17:39 | 8.47483 | 28.94673 | 35738 ft | 456 kts | 273° |
| 2026-04-21 17:40 | 8.47832 | 28.88282 | 35735 ft | 456 kts | 273° |
| 2026-04-21 17:40 | 8.48179 | 28.81890 | 35735 ft | 456 kts | 273° |
| 2026-04-21 17:41 | 8.48526 | 28.75498 | 35743 ft | 456 kts | 273° |
| 2026-04-21 17:41 | 8.48871 | 28.69107 | 35742 ft | 456 kts | 273° |
| 2026-04-21 17:42 | 8.49216 | 28.62713 | 35735 ft | 456 kts | 273° |
| 2026-04-21 17:42 | 8.49559 | 28.56323 | 35735 ft | 456 kts | 273° |
| 2026-04-21 17:43 | 8.49901 | 28.49931 | 35746 ft | 455 kts | 273° |
| 2026-04-21 17:43 | 8.50242 | 28.43546 | 35746 ft | 455 kts | 273° |
| 2026-04-21 17:44 | 8.50582 | 28.37160 | 35736 ft | 455 kts | 273° |
| 2026-04-21 17:44 | 8.50919 | 28.30818 | 35744 ft | 455 kts | 273° |
| 2026-04-21 17:45 | 8.51256 | 28.24440 | 35745 ft | 455 kts | 273° |
| 2026-04-21 17:45 | 8.51593 | 28.18054 | 35744 ft | 455 kts | 273° |
| 2026-04-21 17:46 | 8.51929 | 28.11669 | 35742 ft | 455 kts | 273° |
| 2026-04-21 17:46 | 8.52265 | 28.05248 | 35737 ft | 455 kts | 273° |
| 2026-04-21 17:47 | 8.52596 | 27.98908 | 35731 ft | 455 kts | 273° |
| 2026-04-21 17:47 | 8.52929 | 27.92527 | 35728 ft | 455 kts | 273° |
| 2026-04-21 17:48 | 8.53260 | 27.86145 | 35737 ft | 455 kts | 273° |
| 2026-04-21 17:48 | 8.53590 | 27.79766 | 35742 ft | 455 kts | 273° |
| 2026-04-21 17:49 | 8.53920 | 27.73386 | 35742 ft | 455 kts | 273° |
| 2026-04-21 17:49 | 8.54247 | 27.67011 | 35742 ft | 455 kts | 273° |
| 2026-04-21 17:50 | 8.54574 | 27.60629 | 35745 ft | 455 kts | 273° |
| 2026-04-21 17:50 | 8.54901 | 27.54247 | 35745 ft | 455 kts | 273° |
| 2026-04-21 17:51 | 8.55226 | 27.47861 | 35749 ft | 455 kts | 273° |
| 2026-04-21 17:51 | 8.55550 | 27.41481 | 35749 ft | 455 kts | 273° |
| 2026-04-21 17:52 | 8.55872 | 27.35102 | 35748 ft | 455 kts | 273° |
| 2026-04-21 17:52 | 8.56194 | 27.28723 | 35751 ft | 455 kts | 273° |
| 2026-04-21 17:53 | 8.56515 | 27.22343 | 35751 ft | 455 kts | 273° |
| 2026-04-21 17:53 | 8.56833 | 27.16005 | 35751 ft | 454 kts | 273° |
| 2026-04-21 17:54 | 8.57151 | 27.09630 | 35749 ft | 454 kts | 273° |
| 2026-04-21 17:54 | 8.57468 | 27.03256 | 35755 ft | 454 kts | 273° |
| 2026-04-21 17:55 | 8.57784 | 26.96885 | 35755 ft | 454 kts | 273° |
| 2026-04-21 17:55 | 8.58099 | 26.90518 | 35756 ft | 454 kts | 273° |
| 2026-04-21 17:56 | 8.58413 | 26.84151 | 35757 ft | 454 kts | 273° |
| 2026-04-21 17:56 | 8.58725 | 26.77787 | 35759 ft | 453 kts | 273° |
| 2026-04-21 17:57 | 8.59037 | 26.71426 | 35759 ft | 453 kts | 273° |
| 2026-04-21 17:57 | 8.59347 | 26.65065 | 35761 ft | 453 kts | 273° |
| 2026-04-21 17:58 | 8.59657 | 26.58705 | 35760 ft | 453 kts | 273° |
| 2026-04-21 17:58 | 8.59965 | 26.52345 | 35758 ft | 453 kts | 273° |
| 2026-04-21 17:59 | 8.60272 | 26.45989 | 35763 ft | 453 kts | 273° |
| 2026-04-21 17:59 | 8.60578 | 26.39630 | 35759 ft | 453 kts | 273° |
| 2026-04-21 18:00 | 8.60883 | 26.33268 | 35761 ft | 453 kts | 273° |
| 2026-04-21 18:00 | 8.61184 | 26.26960 | 35763 ft | 453 kts | 273° |
| 2026-04-21 18:01 | 8.61487 | 26.20600 | 35763 ft | 453 kts | 273° |
| 2026-04-21 18:01 | 8.61789 | 26.14243 | 35763 ft | 453 kts | 273° |
| 2026-04-21 18:02 | 8.62090 | 26.07894 | 35771 ft | 453 kts | 273° |
| 2026-04-21 18:02 | 8.62389 | 26.01540 | 35771 ft | 452 kts | 273° |
| 2026-04-21 18:03 | 8.62687 | 25.95191 | 35772 ft | 452 kts | 273° |
| 2026-04-21 18:03 | 8.62984 | 25.88844 | 35770 ft | 452 kts | 273° |
| 2026-04-21 18:04 | 8.63280 | 25.82507 | 35770 ft | 452 kts | 273° |
| 2026-04-21 18:04 | 8.63575 | 25.76170 | 35777 ft | 451 kts | 273° |
| 2026-04-21 18:05 | 8.63868 | 25.69832 | 35785 ft | 451 kts | 273° |
| 2026-04-21 18:05 | 8.64160 | 25.63503 | 35786 ft | 451 kts | 273° |
| 2026-04-21 18:06 | 8.64451 | 25.57169 | 35786 ft | 451 kts | 273° |
| 2026-04-21 18:06 | 8.64742 | 25.50834 | 35785 ft | 451 kts | 273° |
| 2026-04-21 18:07 | 8.65029 | 25.44545 | 35788 ft | 451 kts | 273° |
| 2026-04-21 18:07 | 8.65317 | 25.38214 | 35788 ft | 451 kts | 273° |
| 2026-04-21 18:08 | 8.65604 | 25.31886 | 35791 ft | 451 kts | 273° |
| 2026-04-21 18:08 | 8.65890 | 25.25555 | 35787 ft | 451 kts | 272° |
| 2026-04-21 18:09 | 8.66175 | 25.19226 | 35797 ft | 451 kts | 272° |
| 2026-04-21 18:09 | 8.66458 | 25.12897 | 35799 ft | 451 kts | 272° |
| 2026-04-21 18:10 | 8.66741 | 25.06567 | 35800 ft | 451 kts | 272° |
| 2026-04-21 18:10 | 8.67023 | 25.00240 | 35804 ft | 450 kts | 272° |
| 2026-04-21 18:11 | 8.67303 | 24.93916 | 35804 ft | 451 kts | 272° |
| 2026-04-21 18:11 | 8.67582 | 24.87589 | 35809 ft | 451 kts | 272° |
| 2026-04-21 18:12 | 8.67861 | 24.81263 | 35801 ft | 451 kts | 272° |
| 2026-04-21 18:12 | 8.68138 | 24.74941 | 35816 ft | 450 kts | 272° |
| 2026-04-21 18:13 | 8.68414 | 24.68614 | 35818 ft | 450 kts | 272° |
| 2026-04-21 18:13 | 8.68690 | 24.62293 | 35824 ft | 450 kts | 272° |
| 2026-04-21 18:14 | 8.69101 | 24.52806 | 35830 ft | 450 kts | 272° |
| 2026-04-21 18:15 | 8.69374 | 24.46479 | 35830 ft | 450 kts | 272° |
| 2026-04-21 18:15 | 8.69646 | 24.40153 | 35827 ft | 451 kts | 272° |
| 2026-04-21 18:16 | 8.69917 | 24.33829 | 35828 ft | 450 kts | 272° |
| 2026-04-21 18:16 | 8.70187 | 24.27503 | 35826 ft | 450 kts | 272° |
| 2026-04-21 18:17 | 8.70456 | 24.21177 | 35829 ft | 451 kts | 272° |
| 2026-04-21 18:17 | 8.70723 | 24.14853 | 35825 ft | 451 kts | 272° |
| 2026-04-21 18:18 | 8.70991 | 24.08520 | 35822 ft | 451 kts | 272° |
| 2026-04-21 18:18 | 8.71255 | 24.02228 | 35825 ft | 451 kts | 272° |
| 2026-04-21 18:19 | 8.71520 | 23.95899 | 35821 ft | 451 kts | 272° |
| 2026-04-21 18:19 | 8.71784 | 23.89561 | 35825 ft | 451 kts | 272° |
| 2026-04-21 18:20 | 8.72047 | 23.83228 | 35824 ft | 451 kts | 272° |
| 2026-04-21 18:20 | 8.72309 | 23.76884 | 35821 ft | 452 kts | 272° |
| 2026-04-21 18:21 | 8.72570 | 23.70542 | 35825 ft | 452 kts | 272° |
| 2026-04-21 18:21 | 8.72787 | 23.65267 | 35825 ft | 452 kts | 272° |
| 2026-04-21 18:22 | 8.73047 | 23.58918 | 35828 ft | 452 kts | 272° |
| 2026-04-21 18:22 | 8.72520 | 23.52655 | 35814 ft | 450 kts | 250° |
| 2026-04-21 18:23 | 8.69732 | 23.46971 | 35830 ft | 453 kts | 238° |
| 2026-04-21 18:23 | 8.65663 | 23.42165 | 35843 ft | 453 kts | 220° |
| 2026-04-21 18:24 | 8.61266 | 23.37615 | 35829 ft | 454 kts | 230° |
| 2026-04-21 18:24 | 8.57118 | 23.32801 | 35835 ft | 454 kts | 230° |
| 2026-04-21 18:25 | 8.52972 | 23.27984 | 35832 ft | 454 kts | 230° |
| 2026-04-21 18:25 | 8.48830 | 23.23171 | 35829 ft | 454 kts | 230° |
| 2026-04-21 18:26 | 8.44684 | 23.18357 | 35832 ft | 454 kts | 230° |
| 2026-04-21 18:26 | 8.40532 | 23.13536 | 35836 ft | 455 kts | 230° |
| 2026-04-21 18:27 | 8.36411 | 23.08753 | 35836 ft | 455 kts | 230° |
| 2026-04-21 18:27 | 8.32259 | 23.03936 | 35835 ft | 455 kts | 230° |
| 2026-04-21 18:28 | 8.28105 | 22.99118 | 35836 ft | 455 kts | 230° |
| 2026-04-21 18:28 | 8.23947 | 22.94298 | 35837 ft | 455 kts | 229° |
| 2026-04-21 18:29 | 8.19791 | 22.89481 | 35834 ft | 455 kts | 229° |
| 2026-04-21 18:29 | 8.15631 | 22.84661 | 35836 ft | 455 kts | 229° |
| 2026-04-21 18:30 | 8.11470 | 22.79843 | 35834 ft | 455 kts | 229° |
| 2026-04-21 18:30 | 8.07309 | 22.75025 | 35839 ft | 456 kts | 229° |
| 2026-04-21 18:31 | 8.03138 | 22.70198 | 35835 ft | 456 kts | 229° |
| 2026-04-21 18:31 | 7.98971 | 22.65378 | 35836 ft | 456 kts | 229° |
| 2026-04-21 18:32 | 7.94799 | 22.60553 | 35837 ft | 456 kts | 229° |
| 2026-04-21 18:32 | 7.90628 | 22.55730 | 35837 ft | 456 kts | 229° |
| 2026-04-21 18:33 | 7.86457 | 22.50911 | 35836 ft | 456 kts | 229° |
| 2026-04-21 18:33 | 7.82287 | 22.46093 | 35838 ft | 456 kts | 229° |
| 2026-04-21 18:34 | 7.78122 | 22.41282 | 35837 ft | 456 kts | 229° |
| 2026-04-21 18:34 | 7.73950 | 22.36465 | 35838 ft | 456 kts | 229° |
| 2026-04-21 18:35 | 7.70481 | 22.32461 | 35838 ft | 456 kts | 229° |
| 2026-04-21 18:35 | 7.65629 | 22.26862 | 35837 ft | 456 kts | 229° |
| 2026-04-21 18:36 | 7.61427 | 22.22016 | 35834 ft | 456 kts | 229° |
| 2026-04-21 18:36 | 7.57275 | 22.17228 | 35835 ft | 456 kts | 229° |
| 2026-04-21 18:37 | 7.53072 | 22.12383 | 35833 ft | 456 kts | 229° |
| 2026-04-21 18:37 | 7.48895 | 22.07570 | 35835 ft | 457 kts | 229° |
| 2026-04-21 18:38 | 7.44709 | 22.02748 | 35833 ft | 457 kts | 229° |
| 2026-04-21 18:38 | 7.40529 | 21.97934 | 35835 ft | 457 kts | 229° |
| 2026-04-21 18:39 | 7.36346 | 21.93117 | 35837 ft | 457 kts | 229° |
| 2026-04-21 18:39 | 7.32184 | 21.88327 | 35837 ft | 457 kts | 229° |
| 2026-04-21 18:40 | 7.27998 | 21.83511 | 35835 ft | 457 kts | 228° |
| 2026-04-21 18:40 | 7.24483 | 21.79468 | 35835 ft | 457 kts | 228° |
| 2026-04-21 18:41 | 7.19614 | 21.73869 | 35838 ft | 458 kts | 228° |
| 2026-04-21 18:41 | 7.15417 | 21.69044 | 35835 ft | 458 kts | 229° |
| 2026-04-21 18:42 | 7.11221 | 21.64222 | 35835 ft | 458 kts | 228° |
| 2026-04-21 18:42 | 7.07018 | 21.59394 | 35819 ft | 458 kts | 228° |
| 2026-04-21 18:43 | 7.02818 | 21.54571 | 35831 ft | 458 kts | 229° |
| 2026-04-21 18:43 | 6.98616 | 21.49744 | 35837 ft | 459 kts | 228° |
| 2026-04-21 18:44 | 6.94413 | 21.44919 | 35835 ft | 459 kts | 228° |
| 2026-04-21 18:44 | 6.90205 | 21.40091 | 35832 ft | 459 kts | 228° |
| 2026-04-21 18:45 | 6.85996 | 21.35263 | 35834 ft | 459 kts | 228° |
| 2026-04-21 18:45 | 6.81787 | 21.30435 | 35834 ft | 459 kts | 228° |
| 2026-04-21 18:46 | 6.77604 | 21.25639 | 35834 ft | 459 kts | 228° |
| 2026-04-21 18:46 | 6.73389 | 21.20808 | 35833 ft | 459 kts | 228° |
| 2026-04-21 18:47 | 6.69177 | 21.15981 | 35836 ft | 459 kts | 228° |
| 2026-04-21 18:47 | 6.64965 | 21.11155 | 35833 ft | 459 kts | 228° |
| 2026-04-21 18:48 | 6.60751 | 21.06329 | 35833 ft | 459 kts | 228° |
| 2026-04-21 18:48 | 6.56539 | 21.01505 | 35830 ft | 459 kts | 229° |
| 2026-04-21 18:48 | 6.54746 | 20.98863 | 35822 ft | 458 kts | 243° |
| 2026-04-21 18:49 | 6.53333 | 20.95988 | 35828 ft | 460 kts | 243° |
| 2026-04-21 18:49 | 6.50948 | 20.91200 | 35832 ft | 460 kts | 243° |
| 2026-04-21 18:50 | 6.47648 | 20.84448 | 35828 ft | 461 kts | 243° |
| 2026-04-21 18:50 | 6.44828 | 20.78664 | 35831 ft | 461 kts | 243° |
| 2026-04-21 18:51 | 6.42008 | 20.72879 | 35829 ft | 461 kts | 243° |
| 2026-04-21 18:51 | 6.39188 | 20.67096 | 35828 ft | 461 kts | 243° |
| 2026-04-21 18:52 | 6.36363 | 20.61306 | 35829 ft | 461 kts | 243° |
| 2026-04-21 18:52 | 6.33541 | 20.55524 | 35827 ft | 461 kts | 243° |
| 2026-04-21 18:53 | 6.30721 | 20.49748 | 35827 ft | 460 kts | 243° |
| 2026-04-21 18:53 | 6.27898 | 20.43967 | 35826 ft | 460 kts | 243° |
| 2026-04-21 18:54 | 6.25078 | 20.38195 | 35826 ft | 460 kts | 243° |
| 2026-04-21 18:54 | 6.22260 | 20.32429 | 35823 ft | 459 kts | 244° |
| 2026-04-21 18:55 | 6.19919 | 20.27640 | 35825 ft | 459 kts | 244° |
| 2026-04-21 18:55 | 6.16645 | 20.20945 | 35824 ft | 459 kts | 244° |
| 2026-04-21 18:56 | 6.13828 | 20.15187 | 35821 ft | 459 kts | 244° |
| 2026-04-21 18:56 | 6.11015 | 20.09437 | 35822 ft | 459 kts | 244° |
| 2026-04-21 18:57 | 6.08202 | 20.03690 | 35815 ft | 458 kts | 244° |
| 2026-04-21 18:57 | 6.05388 | 19.97944 | 35816 ft | 458 kts | 244° |
| 2026-04-21 18:58 | 6.02583 | 19.92218 | 35814 ft | 457 kts | 244° |
| 2026-04-21 18:58 | 5.99778 | 19.86492 | 35813 ft | 457 kts | 244° |
| 2026-04-21 18:59 | 5.96972 | 19.80766 | 35811 ft | 456 kts | 244° |
| 2026-04-21 18:59 | 5.94168 | 19.75047 | 35807 ft | 457 kts | 244° |
| 2026-04-21 19:00 | 5.91357 | 19.69316 | 35804 ft | 457 kts | 244° |
| 2026-04-21 19:00 | 5.88545 | 19.63584 | 35804 ft | 458 kts | 244° |
| 2026-04-21 19:01 | 5.85751 | 19.57889 | 35799 ft | 458 kts | 244° |
| 2026-04-21 19:01 | 5.82935 | 19.52152 | 35798 ft | 458 kts | 244° |
| 2026-04-21 19:02 | 5.80120 | 19.46420 | 35797 ft | 458 kts | 244° |
| 2026-04-21 19:02 | 5.77305 | 19.40688 | 35798 ft | 457 kts | 244° |
| 2026-04-21 19:03 | 5.74493 | 19.34966 | 35797 ft | 457 kts | 244° |
| 2026-04-21 19:03 | 5.71680 | 19.29243 | 35792 ft | 457 kts | 244° |
| 2026-04-21 19:04 | 5.68869 | 19.23525 | 35791 ft | 456 kts | 244° |
| 2026-04-21 19:04 | 5.66064 | 19.17821 | 35792 ft | 456 kts | 244° |
| 2026-04-21 19:05 | 5.63256 | 19.12111 | 35793 ft | 456 kts | 244° |
| 2026-04-21 19:05 | 5.60446 | 19.06401 | 35791 ft | 456 kts | 244° |
| 2026-04-21 19:06 | 5.57637 | 19.00695 | 35788 ft | 456 kts | 244° |
| 2026-04-21 19:06 | 5.54829 | 18.94991 | 35792 ft | 456 kts | 244° |
| 2026-04-21 19:07 | 5.52017 | 18.89281 | 35800 ft | 456 kts | 244° |
| 2026-04-21 19:07 | 5.49208 | 18.83578 | 35797 ft | 456 kts | 244° |
| 2026-04-21 19:08 | 5.46395 | 18.77870 | 35795 ft | 456 kts | 244° |
| 2026-04-21 19:08 | 5.43583 | 18.72165 | 35801 ft | 456 kts | 244° |
| 2026-04-21 19:09 | 5.40777 | 18.66474 | 35800 ft | 456 kts | 244° |
| 2026-04-21 19:09 | 5.37961 | 18.60765 | 35803 ft | 456 kts | 244° |
| 2026-04-21 19:10 | 5.35152 | 18.55070 | 35801 ft | 456 kts | 244° |
| 2026-04-21 19:10 | 5.32339 | 18.49370 | 35803 ft | 456 kts | 244° |
| 2026-04-21 19:11 | 5.29528 | 18.43674 | 35804 ft | 455 kts | 244° |
| 2026-04-21 19:11 | 5.27192 | 18.38943 | 35840 ft | 455 kts | 244° |
| 2026-04-21 19:12 | 5.24379 | 18.33247 | 35838 ft | 455 kts | 244° |
| 2026-04-21 19:12 | 5.21111 | 18.26631 | 35842 ft | 455 kts | 244° |
| 2026-04-21 19:13 | 5.18756 | 18.21865 | 35841 ft | 455 kts | 244° |
| 2026-04-21 19:13 | 5.15945 | 18.16178 | 35840 ft | 455 kts | 244° |
| 2026-04-21 19:14 | 5.13129 | 18.10485 | 35842 ft | 455 kts | 244° |
| 2026-04-21 19:14 | 5.10315 | 18.04796 | 35843 ft | 455 kts | 245° |
| 2026-04-21 19:15 | 5.07502 | 17.99110 | 35842 ft | 455 kts | 244° |
| 2026-04-21 19:15 | 5.04706 | 17.93461 | 35845 ft | 455 kts | 245° |
| 2026-04-21 19:16 | 5.01888 | 17.87770 | 35843 ft | 455 kts | 245° |
| 2026-04-21 19:16 | 4.99074 | 17.82087 | 35848 ft | 455 kts | 245° |
| 2026-04-21 19:17 | 4.94847 | 17.73553 | 35846 ft | 455 kts | 245° |
| 2026-04-21 19:17 | 4.92028 | 17.67863 | 35846 ft | 456 kts | 245° |
| 2026-04-21 19:18 | 4.89207 | 17.62173 | 35848 ft | 456 kts | 245° |
| 2026-04-21 19:18 | 4.86384 | 17.56480 | 35845 ft | 456 kts | 245° |
| 2026-04-21 19:19 | 4.83558 | 17.50781 | 35847 ft | 456 kts | 245° |
| 2026-04-21 19:19 | 4.80734 | 17.45085 | 35846 ft | 456 kts | 245° |
| 2026-04-21 19:20 | 4.77909 | 17.39389 | 35844 ft | 457 kts | 245° |
| 2026-04-21 19:20 | 4.75081 | 17.33687 | 35842 ft | 457 kts | 245° |
| 2026-04-21 19:21 | 4.72252 | 17.27985 | 35840 ft | 457 kts | 245° |
| 2026-04-21 19:21 | 4.69419 | 17.22276 | 35838 ft | 457 kts | 245° |
| 2026-04-21 19:22 | 4.66584 | 17.16564 | 35837 ft | 458 kts | 245° |
| 2026-04-21 19:22 | 4.63745 | 17.10847 | 35838 ft | 458 kts | 245° |
| 2026-04-21 19:23 | 4.61301 | 17.04980 | 35845 ft | 456 kts | 255° |
| 2026-04-21 19:23 | 4.59453 | 16.98888 | 35839 ft | 457 kts | 254° |
| 2026-04-21 19:24 | 4.57607 | 16.92786 | 35835 ft | 458 kts | 254° |
| 2026-04-21 19:24 | 4.55761 | 16.86679 | 35835 ft | 458 kts | 254° |
| 2026-04-21 19:25 | 4.53916 | 16.80576 | 35829 ft | 458 kts | 254° |
| 2026-04-21 19:25 | 4.52066 | 16.74459 | 35831 ft | 459 kts | 254° |
| 2026-04-21 19:26 | 4.50216 | 16.68341 | 35830 ft | 459 kts | 254° |
| 2026-04-21 19:26 | 4.48360 | 16.62210 | 35830 ft | 460 kts | 254° |
| 2026-04-21 19:27 | 4.46507 | 16.56085 | 35831 ft | 460 kts | 254° |
| 2026-04-21 19:27 | 4.44661 | 16.49990 | 35830 ft | 460 kts | 254° |
| 2026-04-21 19:28 | 4.42803 | 16.43855 | 35829 ft | 460 kts | 254° |
| 2026-04-21 19:28 | 4.40944 | 16.37719 | 35827 ft | 460 kts | 254° |
| 2026-04-21 19:29 | 4.39084 | 16.31582 | 35823 ft | 460 kts | 254° |
| 2026-04-21 19:29 | 4.37222 | 16.25444 | 35824 ft | 460 kts | 254° |
| 2026-04-21 19:30 | 4.35360 | 16.19303 | 35822 ft | 461 kts | 254° |
| 2026-04-21 19:30 | 4.33499 | 16.13168 | 35823 ft | 461 kts | 254° |
| 2026-04-21 19:31 | 4.31635 | 16.07028 | 35823 ft | 461 kts | 254° |
| 2026-04-21 19:31 | 4.29771 | 16.00886 | 35824 ft | 461 kts | 254° |
| 2026-04-21 19:32 | 4.27905 | 15.94739 | 35825 ft | 461 kts | 254° |
| 2026-04-21 19:32 | 4.26040 | 15.88600 | 35828 ft | 461 kts | 254° |
| 2026-04-21 19:33 | 4.24171 | 15.82450 | 35824 ft | 461 kts | 254° |
| 2026-04-21 19:33 | 4.22692 | 15.76264 | 35830 ft | 459 kts | 265° |
| 2026-04-21 19:34 | 4.21953 | 15.69904 | 35829 ft | 460 kts | 264° |
| 2026-04-21 19:34 | 4.21208 | 15.63531 | 35832 ft | 460 kts | 264° |
| 2026-04-21 19:35 | 4.20096 | 15.53988 | 35833 ft | 460 kts | 264° |
| 2026-04-21 19:36 | 4.19354 | 15.47621 | 35837 ft | 460 kts | 264° |
| 2026-04-21 19:36 | 4.18611 | 15.41257 | 35833 ft | 460 kts | 264° |
| 2026-04-21 19:37 | 4.17868 | 15.34892 | 35837 ft | 460 kts | 264° |
| 2026-04-21 19:37 | 4.17123 | 15.28527 | 35840 ft | 460 kts | 264° |
| 2026-04-21 19:38 | 4.16378 | 15.22173 | 35840 ft | 460 kts | 264° |
| 2026-04-21 19:38 | 4.15758 | 15.16883 | 35841 ft | 460 kts | 264° |
| 2026-04-21 19:39 | 4.14886 | 15.09451 | 35844 ft | 460 kts | 264° |
| 2026-04-21 19:39 | 4.14138 | 15.03079 | 35844 ft | 460 kts | 264° |
| 2026-04-21 19:40 | 4.13391 | 14.96720 | 35846 ft | 460 kts | 264° |
| 2026-04-21 19:40 | 4.12642 | 14.90357 | 35848 ft | 460 kts | 264° |
| 2026-04-21 19:41 | 4.11893 | 14.83992 | 35846 ft | 460 kts | 264° |
| 2026-04-21 19:41 | 4.11144 | 14.77625 | 35850 ft | 460 kts | 264° |
| 2026-04-21 19:42 | 4.10393 | 14.71258 | 35851 ft | 460 kts | 264° |
| 2026-04-21 19:42 | 4.09643 | 14.64895 | 35852 ft | 460 kts | 264° |
| 2026-04-21 19:43 | 4.08892 | 14.58531 | 35852 ft | 460 kts | 264° |
| 2026-04-21 19:43 | 4.08142 | 14.52180 | 35856 ft | 459 kts | 264° |
| 2026-04-21 19:44 | 4.07391 | 14.45824 | 35854 ft | 459 kts | 264° |
| 2026-04-21 19:44 | 4.06639 | 14.39469 | 35857 ft | 459 kts | 264° |
| 2026-04-21 19:45 | 4.05889 | 14.33124 | 35860 ft | 459 kts | 264° |
| 2026-04-21 19:45 | 4.05141 | 14.26813 | 35862 ft | 459 kts | 264° |
| 2026-04-21 19:46 | 4.04390 | 14.20468 | 35861 ft | 459 kts | 264° |
| 2026-04-21 19:46 | 4.03637 | 14.14122 | 35865 ft | 459 kts | 264° |
| 2026-04-21 19:47 | 4.02880 | 14.07739 | 35863 ft | 459 kts | 264° |
| 2026-04-21 19:47 | 4.02126 | 14.01390 | 35870 ft | 459 kts | 264° |
| 2026-04-21 19:48 | 4.01373 | 13.95049 | 35872 ft | 459 kts | 264° |
| 2026-04-21 19:48 | 4.00618 | 13.88699 | 35874 ft | 459 kts | 264° |
| 2026-04-21 19:49 | 3.99868 | 13.82390 | 35879 ft | 459 kts | 264° |
| 2026-04-21 19:49 | 3.99113 | 13.76045 | 35882 ft | 459 kts | 264° |
| 2026-04-21 19:50 | 3.98479 | 13.70727 | 35883 ft | 459 kts | 264° |
| 2026-04-21 19:50 | 3.97599 | 13.63343 | 35887 ft | 460 kts | 264° |
| 2026-04-21 19:51 | 3.96836 | 13.56944 | 35890 ft | 460 kts | 264° |
| 2026-04-21 19:51 | 3.96081 | 13.50612 | 35886 ft | 461 kts | 264° |
| 2026-04-21 19:52 | 3.95328 | 13.44309 | 35620 ft | 448 kts | 264° |
| 2026-04-21 19:52 | 3.94959 | 13.41215 | 35080 ft | 446 kts | 264° |
| 2026-04-21 19:52 | 3.94590 | 13.38130 | 34518 ft | 446 kts | 264° |
| 2026-04-21 19:52 | 3.94223 | 13.35054 | 34007 ft | 444 kts | 265° |
| 2026-04-21 19:53 | 3.93855 | 13.31983 | 33460 ft | 443 kts | 265° |
| 2026-04-21 19:53 | 3.93490 | 13.28935 | 32933 ft | 440 kts | 265° |
| 2026-04-21 19:53 | 3.93127 | 13.25897 | 32439 ft | 437 kts | 265° |
| 2026-04-21 19:53 | 3.92767 | 13.22888 | 31954 ft | 435 kts | 265° |
| 2026-04-21 19:54 | 3.92407 | 13.19890 | 31468 ft | 432 kts | 265° |
| 2026-04-21 19:54 | 3.92051 | 13.16912 | 30992 ft | 430 kts | 265° |
| 2026-04-21 19:54 | 3.91696 | 13.13946 | 30500 ft | 428 kts | 265° |
| 2026-04-21 19:54 | 3.91341 | 13.10989 | 30019 ft | 427 kts | 265° |
| 2026-04-21 19:55 | 3.90988 | 13.08048 | 29465 ft | 425 kts | 265° |
| 2026-04-21 19:55 | 3.90636 | 13.05114 | 28956 ft | 423 kts | 265° |
| 2026-04-21 19:55 | 3.90287 | 13.02206 | 28492 ft | 420 kts | 265° |
| 2026-04-21 19:55 | 3.89941 | 12.99315 | 28028 ft | 417 kts | 265° |
| 2026-04-21 19:56 | 3.89596 | 12.96441 | 27559 ft | 415 kts | 265° |
| 2026-04-21 19:56 | 3.89252 | 12.93579 | 27097 ft | 413 kts | 265° |
| 2026-04-21 19:56 | 3.88909 | 12.90728 | 26635 ft | 411 kts | 265° |
| 2026-04-21 19:56 | 3.88569 | 12.87895 | 26180 ft | 410 kts | 265° |
| 2026-04-21 19:57 | 3.88227 | 12.85068 | 25717 ft | 408 kts | 264° |
| 2026-04-21 19:57 | 3.87894 | 12.82247 | 25264 ft | 407 kts | 264° |
| 2026-04-21 19:57 | 3.87557 | 12.79438 | 24800 ft | 407 kts | 264° |
| 2026-04-21 19:57 | 3.87216 | 12.76624 | 24364 ft | 406 kts | 264° |
| 2026-04-21 19:58 | 3.86878 | 12.73815 | 23930 ft | 406 kts | 264° |
| 2026-04-21 19:58 | 3.86638 | 12.71008 | 23445 ft | 406 kts | 273° |
| 2026-04-21 19:58 | 3.86821 | 12.69143 | 23078 ft | 405 kts | 278° |
| 2026-04-21 19:58 | 3.87129 | 12.66353 | 22658 ft | 402 kts | 276° |
| 2026-04-21 19:59 | 3.87504 | 12.62674 | 22113 ft | 399 kts | 276° |
| 2026-04-21 19:59 | 3.87786 | 12.59917 | 21690 ft | 397 kts | 276° |
| 2026-04-21 19:59 | 3.87976 | 12.58064 | 21406 ft | 396 kts | 276° |
| 2026-04-21 19:59 | 3.88255 | 12.55330 | 20997 ft | 394 kts | 276° |
| 2026-04-21 20:00 | 3.88533 | 12.52608 | 20584 ft | 392 kts | 276° |
| 2026-04-21 20:00 | 3.88900 | 12.49022 | 20052 ft | 390 kts | 276° |
| 2026-04-21 20:00 | 3.89176 | 12.46322 | 19647 ft | 389 kts | 276° |
| 2026-04-21 20:00 | 3.89361 | 12.44507 | 19381 ft | 388 kts | 276° |
| 2026-04-21 20:01 | 3.89635 | 12.41825 | 18978 ft | 387 kts | 276° |
| 2026-04-21 20:01 | 3.89908 | 12.39148 | 18582 ft | 386 kts | 276° |
| 2026-04-21 20:01 | 3.90181 | 12.36473 | 18183 ft | 385 kts | 276° |
| 2026-04-21 20:01 | 3.90453 | 12.33809 | 17741 ft | 384 kts | 276° |
| 2026-04-21 20:02 | 3.90725 | 12.31148 | 17324 ft | 382 kts | 276° |
| 2026-04-21 20:02 | 3.90993 | 12.28513 | 16930 ft | 380 kts | 276° |
| 2026-04-21 20:02 | 3.91260 | 12.25889 | 16548 ft | 377 kts | 276° |
| 2026-04-21 20:02 | 3.91527 | 12.23280 | 16163 ft | 375 kts | 276° |
| 2026-04-21 20:03 | 3.91787 | 12.20723 | 15789 ft | 373 kts | 276° |
| 2026-04-21 20:03 | 3.92139 | 12.18157 | 15383 ft | 372 kts | 281° |
| 2026-04-21 20:03 | 3.92616 | 12.15620 | 15023 ft | 369 kts | 281° |
| 2026-04-21 20:03 | 3.93074 | 12.13101 | 14668 ft | 367 kts | 281° |
| 2026-04-21 20:04 | 3.93522 | 12.10591 | 14300 ft | 365 kts | 281° |
| 2026-04-21 20:04 | 3.93964 | 12.08090 | 13934 ft | 364 kts | 281° |
| 2026-04-21 20:04 | 3.94403 | 12.05601 | 13550 ft | 362 kts | 281° |
| 2026-04-21 20:04 | 3.94837 | 12.03128 | 13151 ft | 361 kts | 281° |
| 2026-04-21 20:05 | 3.95267 | 12.00682 | 12772 ft | 349 kts | 281° |
| 2026-04-21 20:05 | 3.95681 | 11.98326 | 12424 ft | 338 kts | 281° |
| 2026-04-21 20:05 | 3.96079 | 11.96063 | 12128 ft | 325 kts | 282° |
| 2026-04-21 20:05 | 3.96340 | 11.94602 | 11932 ft | 317 kts | 281° |
| 2026-04-21 20:06 | 3.96460 | 11.93917 | 11847 ft | 313 kts | 282° |
| 2026-04-21 20:06 | 3.96790 | 11.92018 | 11573 ft | 309 kts | 282° |
| 2026-04-21 20:06 | 3.97168 | 11.89861 | 11246 ft | 318 kts | 282° |
| 2026-04-21 20:07 | 3.97553 | 11.87663 | 10907 ft | 322 kts | 282° |
| 2026-04-21 20:07 | 3.97945 | 11.85439 | 10430 ft | 327 kts | 282° |
| 2026-04-21 20:07 | 3.98339 | 11.83198 | 10140 ft | 325 kts | 282° |
| 2026-04-21 20:07 | 3.98725 | 11.80983 | 9873 ft | 322 kts | 282° |
| 2026-04-21 20:08 | 3.99109 | 11.78789 | 9616 ft | 317 kts | 282° |
| 2026-04-21 20:08 | 3.99486 | 11.76639 | 9486 ft | 308 kts | 282° |
| 2026-04-21 20:08 | 3.99850 | 11.74557 | 9343 ft | 298 kts | 282° |
| 2026-04-21 20:08 | 4.00199 | 11.72568 | 9204 ft | 282 kts | 282° |
| 2026-04-21 20:09 | 4.00528 | 11.70691 | 9074 ft | 268 kts | 283° |
| 2026-04-21 20:09 | 4.00851 | 11.68869 | 8819 ft | 265 kts | 282° |
| 2026-04-21 20:09 | 4.01171 | 11.67061 | 8571 ft | 260 kts | 282° |
| 2026-04-21 20:09 | 4.01482 | 11.65302 | 8363 ft | 252 kts | 282° |
| 2026-04-21 20:10 | 4.01727 | 11.63601 | 8154 ft | 243 kts | 271° |
| 2026-04-21 20:10 | 4.01330 | 11.61982 | 7804 ft | 241 kts | 240° |
| 2026-04-21 20:10 | 4.00258 | 11.60767 | 7462 ft | 229 kts | 212° |
| 2026-04-21 20:10 | 3.98863 | 11.60083 | 7130 ft | 219 kts | 194° |
| 2026-04-21 20:11 | 3.97408 | 11.59761 | 6839 ft | 210 kts | 187° |
| 2026-04-21 20:11 | 3.95995 | 11.59506 | 6544 ft | 203 kts | 187° |
| 2026-04-21 20:11 | 3.94629 | 11.59268 | 6261 ft | 194 kts | 187° |
| 2026-04-21 20:11 | 3.93360 | 11.59044 | 6046 ft | 175 kts | 187° |
| 2026-04-21 20:12 | 3.92180 | 11.58836 | 5807 ft | 170 kts | 187° |
| 2026-04-21 20:12 | 3.91030 | 11.58635 | 5602 ft | 169 kts | 188° |
| 2026-04-21 20:12 | 3.89857 | 11.58420 | 5367 ft | 169 kts | 188° |
| 2026-04-21 20:12 | 3.88717 | 11.58223 | 5145 ft | 168 kts | 187° |
| 2026-04-21 20:13 | 3.87566 | 11.58025 | 4931 ft | 168 kts | 188° |
| 2026-04-21 20:13 | 3.86419 | 11.57825 | 4721 ft | 167 kts | 189° |
| 2026-04-21 20:13 | 3.85278 | 11.57624 | 4500 ft | 166 kts | 189° |
| 2026-04-21 20:13 | 3.84144 | 11.57425 | 4273 ft | 165 kts | 189° |
| 2026-04-21 20:14 | 3.83016 | 11.57226 | 4074 ft | 164 kts | 190° |
| 2026-04-21 20:14 | 3.81890 | 11.57028 | 3860 ft | 164 kts | 191° |
| 2026-04-21 20:14 | 3.80770 | 11.56832 | 3658 ft | 163 kts | 191° |
| 2026-04-21 20:14 | 3.79668 | 11.56622 | 3502 ft | 159 kts | 193° |
| 2026-04-21 20:15 | 3.78572 | 11.56426 | 3364 ft | 158 kts | 194° |
| 2026-04-21 20:15 | 3.77495 | 11.56229 | 3148 ft | 162 kts | 188° |
| 2026-04-21 20:15 | 3.76384 | 11.56039 | 2977 ft | 158 kts | 188° |
| 2026-04-21 20:15 | 3.75301 | 11.55864 | 2620 ft | 165 kts | 191° |
| 2026-04-21 20:16 | 3.74163 | 11.55653 | 2417 ft | 162 kts | 189° |
| 2026-04-21 20:16 | 3.73099 | 11.55487 | 2278 ft | 144 kts | 189° |
| 2026-04-21 20:16 | 3.72275 | 11.55347 | 2272 ft | 89 kts | 194° |
| 2026-04-21 20:16 | 3.71883 | 11.55266 | 2271 ft | 40 kts | 188° |
| 2026-04-21 20:17 | 3.71710 | 11.55205 | 2272 ft | 17 kts | 210° |
| 2026-04-21 20:17 | 3.71631 | 11.55158 | 2271 ft | 10 kts | 215° |
| 2026-04-21 20:17 | 3.71615 | 11.55146 | 2270 ft | 3 kts | 214° |
| 2026-04-21 20:17 | 3.71583 | 11.55125 | 2269 ft | 8 kts | 213° |
| 2026-04-21 20:18 | 3.71553 | 11.55098 | 2268 ft | 10 kts | 222° |
| 2026-04-21 20:18 | 3.71497 | 11.55045 | 2267 ft | 0 kts | 235° |
| 2026-04-21 20:18 | 3.71496 | 11.55044 | 2267 ft | 1 kts | 235° |
| 2026-04-21 20:19 | 3.71489 | 11.55019 | 2266 ft | 7 kts | 265° |
| 2026-04-21 20:19 | 3.71462 | 11.54957 | 2266 ft | 12 kts | 210° |
| 2026-04-21 20:19 | 3.71410 | 11.54944 | 2266 ft | 2 kts | 192° |
| 2026-04-21 20:19 | 3.71400 | 11.54936 | 2266 ft | 2 kts | 250° |
| 2026-04-21 20:20 | 3.71416 | 11.54917 | 2265 ft | 7 kts | 320° |
| 2026-04-21 20:20 | 3.71462 | 11.54870 | 2265 ft | 9 kts | 273° |
| 2026-04-21 20:20 | 3.71441 | 11.54850 | 2265 ft | 5 kts | 193° |
| 2026-04-21 20:20 | 3.71429 | 11.54855 | 2265 ft | 3 kts | 152° |
| 2026-04-21 20:21 | 3.71417 | 11.54855 | 2265 ft | 0 kts | 188° |